sensor_id;sensor_type;location;lat;lon;timestamp;P1;durP1;ratioP1;P2;durP2;ratioP2
34671;SDS011;55835;52.096;21.060;2022-07-06T00:01:41;0.35;;;0.35;;
34671;SDS011;55835;52.096;21.060;2022-07-06T00:04:09;0.40;;;0.40;;
34671;SDS011;55835;52.096;21.060;2022-07-06T00:06:36;0.38;;;0.38;;
34671;SDS011;55835;52.096;21.060;2022-07-06T00:09:04;0.38;;;0.38;;
34671;SDS011;55835;52.096;21.060;2022-07-06T00:11:31;0.30;;;0.30;;
34671;SDS011;55835;52.096;21.060;2022-07-06T00:13:58;0.40;;;0.40;;
34671;SDS011;55835;52.096;21.060;2022-07-06T00:16:25;0.40;;;0.40;;
34671;SDS011;55835;52.096;21.060;2022-07-06T00:18:51;0.40;;;0.40;;
34671;SDS011;55835;52.096;21.060;2022-07-06T00:21:19;0.40;;;0.40;;
34671;SDS011;55835;52.096;21.060;2022-07-06T00:23:46;0.40;;;0.40;;
34671;SDS011;55835;52.096;21.060;2022-07-06T00:26:13;0.47;;;0.47;;
34671;SDS011;55835;52.096;21.060;2022-07-06T00:28:40;0.38;;;0.38;;
34671;SDS011;55835;52.096;21.060;2022-07-06T00:31:07;0.30;;;0.30;;
34671;SDS011;55835;52.096;21.060;2022-07-06T00:33:33;0.40;;;0.40;;
34671;SDS011;55835;52.096;21.060;2022-07-06T00:36:00;0.40;;;0.40;;
34671;SDS011;55835;52.096;21.060;2022-07-06T00:38:28;0.43;;;0.43;;
34671;SDS011;55835;52.096;21.060;2022-07-06T00:40:55;0.30;;;0.30;;
34671;SDS011;55835;52.096;21.060;2022-07-06T00:43:21;0.30;;;0.30;;
34671;SDS011;55835;52.096;21.060;2022-07-06T00:45:48;0.57;;;0.30;;
34671;SDS011;55835;52.096;21.060;2022-07-06T00:48:15;0.30;;;0.30;;
34671;SDS011;55835;52.096;21.060;2022-07-06T00:50:41;0.38;;;0.38;;
34671;SDS011;55835;52.096;21.060;2022-07-06T00:53:08;0.40;;;0.40;;
34671;SDS011;55835;52.096;21.060;2022-07-06T00:55:37;2.13;;;0.40;;
34671;SDS011;55835;52.096;21.060;2022-07-06T00:58:05;0.73;;;0.30;;
34671;SDS011;55835;52.096;21.060;2022-07-06T01:00:32;0.25;;;0.25;;
34671;SDS011;55835;52.096;21.060;2022-07-06T01:03:00;1.02;;;0.40;;
34671;SDS011;55835;52.096;21.060;2022-07-06T01:05:27;0.30;;;0.30;;
34671;SDS011;55835;52.096;21.060;2022-07-06T01:07:55;0.77;;;0.28;;
34671;SDS011;55835;52.096;21.060;2022-07-06T01:10:22;0.60;;;0.30;;
34671;SDS011;55835;52.096;21.060;2022-07-06T01:12:50;1.33;;;0.30;;
34671;SDS011;55835;52.096;21.060;2022-07-06T01:15:18;0.30;;;0.30;;
34671;SDS011;55835;52.096;21.060;2022-07-06T01:17:46;0.50;;;0.28;;
34671;SDS011;55835;52.096;21.060;2022-07-06T01:20:15;0.30;;;0.30;;
34671;SDS011;55835;52.096;21.060;2022-07-06T01:22:44;0.30;;;0.30;;
34671;SDS011;55835;52.096;21.060;2022-07-06T01:25:11;0.40;;;0.30;;
34671;SDS011;55835;52.096;21.060;2022-07-06T01:27:38;0.77;;;0.40;;
34671;SDS011;55835;52.096;21.060;2022-07-06T01:30:07;0.32;;;0.30;;
34671;SDS011;55835;52.096;21.060;2022-07-06T01:32:36;0.40;;;0.30;;
34671;SDS011;55835;52.096;21.060;2022-07-06T01:35:03;1.25;;;0.30;;
34671;SDS011;55835;52.096;21.060;2022-07-06T01:37:34;4.57;;;0.40;;
34671;SDS011;55835;52.096;21.060;2022-07-06T01:40:01;0.30;;;0.30;;
34671;SDS011;55835;52.096;21.060;2022-07-06T01:42:30;0.73;;;0.28;;
34671;SDS011;55835;52.096;21.060;2022-07-06T01:44:57;0.60;;;0.22;;
34671;SDS011;55835;52.096;21.060;2022-07-06T01:47:24;1.10;;;0.30;;
34671;SDS011;55835;52.096;21.060;2022-07-06T01:49:50;0.30;;;0.30;;
34671;SDS011;55835;52.096;21.060;2022-07-06T01:52:18;0.30;;;0.30;;
34671;SDS011;55835;52.096;21.060;2022-07-06T01:54:46;0.60;;;0.30;;
34671;SDS011;55835;52.096;21.060;2022-07-06T01:57:13;0.50;;;0.30;;
34671;SDS011;55835;52.096;21.060;2022-07-06T01:59:40;0.30;;;0.30;;
34671;SDS011;55835;52.096;21.060;2022-07-06T02:02:06;0.30;;;0.30;;
34671;SDS011;55835;52.096;21.060;2022-07-06T02:04:33;2.28;;;0.35;;
34671;SDS011;55835;52.096;21.060;2022-07-06T02:07:00;0.55;;;0.30;;
34671;SDS011;55835;52.096;21.060;2022-07-06T02:09:27;0.20;;;0.20;;
34671;SDS011;55835;52.096;21.060;2022-07-06T02:11:55;0.20;;;0.20;;
34671;SDS011;55835;52.096;21.060;2022-07-06T02:14:22;0.20;;;0.20;;
34671;SDS011;55835;52.096;21.060;2022-07-06T02:16:49;0.38;;;0.38;;
34671;SDS011;55835;52.096;21.060;2022-07-06T02:19:15;0.35;;;0.35;;
34671;SDS011;55835;52.096;21.060;2022-07-06T02:21:42;0.20;;;0.20;;
34671;SDS011;55835;52.096;21.060;2022-07-06T02:24:09;0.20;;;0.20;;
34671;SDS011;55835;52.096;21.060;2022-07-06T02:26:35;0.10;;;0.10;;
34671;SDS011;55835;52.096;21.060;2022-07-06T02:29:03;0.30;;;0.30;;
34671;SDS011;55835;52.096;21.060;2022-07-06T02:31:30;0.50;;;0.30;;
34671;SDS011;55835;52.096;21.060;2022-07-06T02:33:57;0.47;;;0.30;;
34671;SDS011;55835;52.096;21.060;2022-07-06T02:36:23;0.30;;;0.30;;
34671;SDS011;55835;52.096;21.060;2022-07-06T02:38:50;0.30;;;0.30;;
34671;SDS011;55835;52.096;21.060;2022-07-06T02:41:17;0.40;;;0.30;;
34671;SDS011;55835;52.096;21.060;2022-07-06T02:43:43;0.20;;;0.20;;
34671;SDS011;55835;52.096;21.060;2022-07-06T02:46:12;0.22;;;0.22;;
34671;SDS011;55835;52.096;21.060;2022-07-06T02:48:39;0.20;;;0.20;;
34671;SDS011;55835;52.096;21.060;2022-07-06T02:51:05;0.75;;;0.20;;
34671;SDS011;55835;52.096;21.060;2022-07-06T02:53:32;0.30;;;0.30;;
34671;SDS011;55835;52.096;21.060;2022-07-06T02:55:59;0.20;;;0.20;;
34671;SDS011;55835;52.096;21.060;2022-07-06T02:58:26;0.25;;;0.25;;
34671;SDS011;55835;52.096;21.060;2022-07-06T03:00:52;4.78;;;0.52;;
34671;SDS011;55835;52.096;21.060;2022-07-06T03:03:20;0.20;;;0.20;;
34671;SDS011;55835;52.096;21.060;2022-07-06T03:05:47;0.22;;;0.20;;
34671;SDS011;55835;52.096;21.060;2022-07-06T03:08:14;0.35;;;0.22;;
34671;SDS011;55835;52.096;21.060;2022-07-06T03:10:41;0.20;;;0.20;;
34671;SDS011;55835;52.096;21.060;2022-07-06T03:13:08;0.22;;;0.20;;
34671;SDS011;55835;52.096;21.060;2022-07-06T03:15:34;0.30;;;0.30;;
34671;SDS011;55835;52.096;21.060;2022-07-06T03:18:01;0.30;;;0.30;;
34671;SDS011;55835;52.096;21.060;2022-07-06T03:20:29;0.35;;;0.35;;
34671;SDS011;55835;52.096;21.060;2022-07-06T03:22:56;0.20;;;0.20;;
34671;SDS011;55835;52.096;21.060;2022-07-06T03:25:23;0.20;;;0.20;;
34671;SDS011;55835;52.096;21.060;2022-07-06T03:27:49;0.30;;;0.30;;
34671;SDS011;55835;52.096;21.060;2022-07-06T03:30:16;0.30;;;0.30;;
34671;SDS011;55835;52.096;21.060;2022-07-06T03:32:43;0.20;;;0.20;;
34671;SDS011;55835;52.096;21.060;2022-07-06T03:35:09;0.20;;;0.20;;
34671;SDS011;55835;52.096;21.060;2022-07-06T03:37:38;0.30;;;0.20;;
34671;SDS011;55835;52.096;21.060;2022-07-06T03:40:05;0.22;;;0.20;;
34671;SDS011;55835;52.096;21.060;2022-07-06T03:42:32;0.30;;;0.28;;
34671;SDS011;55835;52.096;21.060;2022-07-06T03:44:59;0.30;;;0.30;;
34671;SDS011;55835;52.096;21.060;2022-07-06T03:47:26;0.30;;;0.20;;
34671;SDS011;55835;52.096;21.060;2022-07-06T03:49:52;0.20;;;0.20;;
34671;SDS011;55835;52.096;21.060;2022-07-06T03:52:19;0.30;;;0.30;;
34671;SDS011;55835;52.096;21.060;2022-07-06T03:54:47;0.20;;;0.20;;
34671;SDS011;55835;52.096;21.060;2022-07-06T03:57:14;0.28;;;0.25;;
34671;SDS011;55835;52.096;21.060;2022-07-06T03:59:40;0.20;;;0.20;;
34671;SDS011;55835;52.096;21.060;2022-07-06T04:02:07;1.35;;;0.30;;
34671;SDS011;55835;52.096;21.060;2022-07-06T04:04:34;0.52;;;0.30;;
34671;SDS011;55835;52.096;21.060;2022-07-06T04:07:00;0.70;;;0.25;;
34671;SDS011;55835;52.096;21.060;2022-07-06T04:09:27;0.10;;;0.10;;
34671;SDS011;55835;52.096;21.060;2022-07-06T04:11:55;0.20;;;0.20;;
34671;SDS011;55835;52.096;21.060;2022-07-06T04:14:22;0.20;;;0.20;;
34671;SDS011;55835;52.096;21.060;2022-07-06T04:16:48;0.20;;;0.20;;
34671;SDS011;55835;52.096;21.060;2022-07-06T04:19:15;0.20;;;0.20;;
34671;SDS011;55835;52.096;21.060;2022-07-06T04:21:42;0.20;;;0.20;;
34671;SDS011;55835;52.096;21.060;2022-07-06T04:24:08;1.85;;;0.20;;
34671;SDS011;55835;52.096;21.060;2022-07-06T04:26:35;0.20;;;0.20;;
34671;SDS011;55835;52.096;21.060;2022-07-06T04:29:03;0.20;;;0.20;;
34671;SDS011;55835;52.096;21.060;2022-07-06T04:31:30;0.20;;;0.20;;
34671;SDS011;55835;52.096;21.060;2022-07-06T04:33:56;0.20;;;0.20;;
34671;SDS011;55835;52.096;21.060;2022-07-06T04:36:23;0.45;;;0.30;;
34671;SDS011;55835;52.096;21.060;2022-07-06T04:38:50;0.28;;;0.20;;
34671;SDS011;55835;52.096;21.060;2022-07-06T04:41:16;0.20;;;0.20;;
34671;SDS011;55835;52.096;21.060;2022-07-06T04:43:43;0.30;;;0.30;;
34671;SDS011;55835;52.096;21.060;2022-07-06T04:46:11;0.10;;;0.10;;
34671;SDS011;55835;52.096;21.060;2022-07-06T04:48:38;0.20;;;0.20;;
34671;SDS011;55835;52.096;21.060;2022-07-06T04:51:05;0.50;;;0.20;;
34671;SDS011;55835;52.096;21.060;2022-07-06T04:53:32;0.40;;;0.20;;
34671;SDS011;55835;52.096;21.060;2022-07-06T04:55:59;0.80;;;0.28;;
34671;SDS011;55835;52.096;21.060;2022-07-06T04:58:26;0.40;;;0.15;;
34671;SDS011;55835;52.096;21.060;2022-07-06T05:00:53;0.20;;;0.20;;
34671;SDS011;55835;52.096;21.060;2022-07-06T05:03:21;0.73;;;0.20;;
34671;SDS011;55835;52.096;21.060;2022-07-06T05:05:48;0.10;;;0.10;;
34671;SDS011;55835;52.096;21.060;2022-07-06T05:08:14;0.10;;;0.10;;
34671;SDS011;55835;52.096;21.060;2022-07-06T05:10:41;3.40;;;0.30;;
34671;SDS011;55835;52.096;21.060;2022-07-06T05:13:08;0.10;;;0.10;;
34671;SDS011;55835;52.096;21.060;2022-07-06T05:15:34;0.20;;;0.20;;
34671;SDS011;55835;52.096;21.060;2022-07-06T05:18:01;0.20;;;0.20;;
34671;SDS011;55835;52.096;21.060;2022-07-06T05:20:29;0.13;;;0.10;;
34671;SDS011;55835;52.096;21.060;2022-07-06T05:22:56;0.28;;;0.28;;
34671;SDS011;55835;52.096;21.060;2022-07-06T05:25:23;0.20;;;0.20;;
34671;SDS011;55835;52.096;21.060;2022-07-06T05:27:49;0.20;;;0.20;;
34671;SDS011;55835;52.096;21.060;2022-07-06T05:30:16;0.30;;;0.30;;
34671;SDS011;55835;52.096;21.060;2022-07-06T05:32:43;1.08;;;0.20;;
34671;SDS011;55835;52.096;21.060;2022-07-06T05:35:10;0.10;;;0.10;;
34671;SDS011;55835;52.096;21.060;2022-07-06T05:37:38;1.27;;;0.20;;
34671;SDS011;55835;52.096;21.060;2022-07-06T05:40:05;0.20;;;0.20;;
34671;SDS011;55835;52.096;21.060;2022-07-06T05:42:32;0.30;;;0.30;;
34671;SDS011;55835;52.096;21.060;2022-07-06T05:44:59;0.10;;;0.10;;
34671;SDS011;55835;52.096;21.060;2022-07-06T05:47:26;0.30;;;0.30;;
34671;SDS011;55835;52.096;21.060;2022-07-06T05:50:09;0.30;;;0.20;;
34671;SDS011;55835;52.096;21.060;2022-07-06T05:55:08;2.83;;;0.95;;
34671;SDS011;55835;52.096;21.060;2022-07-06T05:57:35;0.20;;;0.20;;
34671;SDS011;55835;52.096;21.060;2022-07-06T06:00:02;0.35;;;0.20;;
34671;SDS011;55835;52.096;21.060;2022-07-06T06:02:36;0.88;;;0.20;;
34671;SDS011;55835;52.096;21.060;2022-07-06T06:05:03;0.50;;;0.30;;
34671;SDS011;55835;52.096;21.060;2022-07-06T06:07:30;1.85;;;0.20;;
34671;SDS011;55835;52.096;21.060;2022-07-06T06:10:00;2.25;;;0.40;;
34671;SDS011;55835;52.096;21.060;2022-07-06T06:12:27;0.82;;;0.30;;
34671;SDS011;55835;52.096;21.060;2022-07-06T06:14:54;0.20;;;0.20;;
34671;SDS011;55835;52.096;21.060;2022-07-06T06:17:20;1.10;;;0.30;;
34671;SDS011;55835;52.096;21.060;2022-07-06T06:19:47;0.65;;;0.20;;
34671;SDS011;55835;52.096;21.060;2022-07-06T06:22:14;0.20;;;0.20;;
34671;SDS011;55835;52.096;21.060;2022-07-06T06:24:40;2.85;;;0.32;;
34671;SDS011;55835;52.096;21.060;2022-07-06T06:27:08;0.90;;;0.30;;
34671;SDS011;55835;52.096;21.060;2022-07-06T06:29:35;0.40;;;0.40;;
34671;SDS011;55835;52.096;21.060;2022-07-06T06:32:02;0.40;;;0.40;;
34671;SDS011;55835;52.096;21.060;2022-07-06T06:34:30;2.15;;;0.40;;
34671;SDS011;55835;52.096;21.060;2022-07-06T06:36:57;1.20;;;0.40;;
34671;SDS011;55835;52.096;21.060;2022-07-06T06:39:23;1.60;;;0.30;;
34671;SDS011;55835;52.096;21.060;2022-07-06T06:41:50;2.72;;;0.20;;
34671;SDS011;55835;52.096;21.060;2022-07-06T06:44:18;0.40;;;0.40;;
34671;SDS011;55835;52.096;21.060;2022-07-06T06:46:48;2.97;;;0.40;;
34671;SDS011;55835;52.096;21.060;2022-07-06T06:49:15;0.93;;;0.40;;
34671;SDS011;55835;52.096;21.060;2022-07-06T06:51:42;1.08;;;0.38;;
34671;SDS011;55835;52.096;21.060;2022-07-06T06:54:08;0.40;;;0.30;;
34671;SDS011;55835;52.096;21.060;2022-07-06T06:56:35;0.35;;;0.35;;
34671;SDS011;55835;52.096;21.060;2022-07-06T06:59:02;0.50;;;0.30;;
34671;SDS011;55835;52.096;21.060;2022-07-06T07:01:30;1.52;;;0.50;;
34671;SDS011;55835;52.096;21.060;2022-07-06T07:03:57;0.40;;;0.40;;
34671;SDS011;55835;52.096;21.060;2022-07-06T07:06:24;0.35;;;0.30;;
34671;SDS011;55835;52.096;21.060;2022-07-06T07:08:51;0.40;;;0.40;;
34671;SDS011;55835;52.096;21.060;2022-07-06T07:11:18;0.43;;;0.43;;
34671;SDS011;55835;52.096;21.060;2022-07-06T07:13:44;0.35;;;0.35;;
34671;SDS011;55835;52.096;21.060;2022-07-06T07:16:11;0.82;;;0.50;;
34671;SDS011;55835;52.096;21.060;2022-07-06T07:18:39;0.75;;;0.40;;
34671;SDS011;55835;52.096;21.060;2022-07-06T07:21:06;0.30;;;0.30;;
34671;SDS011;55835;52.096;21.060;2022-07-06T07:23:32;0.73;;;0.45;;
34671;SDS011;55835;52.096;21.060;2022-07-06T07:25:59;0.60;;;0.35;;
34671;SDS011;55835;52.096;21.060;2022-07-06T07:28:26;3.20;;;0.50;;
34671;SDS011;55835;52.096;21.060;2022-07-06T07:30:52;0.85;;;0.50;;
34671;SDS011;55835;52.096;21.060;2022-07-06T07:33:19;1.33;;;0.50;;
34671;SDS011;55835;52.096;21.060;2022-07-06T07:35:48;1.60;;;0.40;;
34671;SDS011;55835;52.096;21.060;2022-07-06T07:38:14;1.25;;;0.50;;
34671;SDS011;55835;52.096;21.060;2022-07-06T07:40:41;2.00;;;0.40;;
34671;SDS011;55835;52.096;21.060;2022-07-06T07:43:08;4.88;;;0.70;;
34671;SDS011;55835;52.096;21.060;2022-07-06T07:45:34;4.85;;;0.68;;
34671;SDS011;55835;52.096;21.060;2022-07-06T07:48:01;6.68;;;0.63;;
34671;SDS011;55835;52.096;21.060;2022-07-06T07:50:28;2.67;;;0.70;;
34671;SDS011;55835;52.096;21.060;2022-07-06T07:52:56;6.38;;;0.80;;
34671;SDS011;55835;52.096;21.060;2022-07-06T07:55:23;1.67;;;0.68;;
34671;SDS011;55835;52.096;21.060;2022-07-06T07:57:50;2.50;;;0.60;;
34671;SDS011;55835;52.096;21.060;2022-07-06T08:00:17;4.45;;;0.60;;
34671;SDS011;55835;52.096;21.060;2022-07-06T08:02:46;4.47;;;0.70;;
34671;SDS011;55835;52.096;21.060;2022-07-06T08:05:13;3.13;;;0.70;;
34671;SDS011;55835;52.096;21.060;2022-07-06T08:07:40;0.95;;;0.60;;
34671;SDS011;55835;52.096;21.060;2022-07-06T08:10:09;4.38;;;0.80;;
34671;SDS011;55835;52.096;21.060;2022-07-06T08:12:36;5.80;;;0.90;;
34671;SDS011;55835;52.096;21.060;2022-07-06T08:15:03;3.80;;;0.70;;
34671;SDS011;55835;52.096;21.060;2022-07-06T08:17:30;3.05;;;0.80;;
34671;SDS011;55835;52.096;21.060;2022-07-06T08:19:57;6.45;;;0.80;;
34671;SDS011;55835;52.096;21.060;2022-07-06T08:22:24;3.35;;;0.82;;
34671;SDS011;55835;52.096;21.060;2022-07-06T08:24:52;2.92;;;0.65;;
34671;SDS011;55835;52.096;21.060;2022-07-06T08:27:20;1.42;;;0.60;;
34671;SDS011;55835;52.096;21.060;2022-07-06T08:29:47;3.10;;;0.65;;
34671;SDS011;55835;52.096;21.060;2022-07-06T08:32:13;2.78;;;0.68;;
34671;SDS011;55835;52.096;21.060;2022-07-06T08:34:40;5.95;;;0.70;;
34671;SDS011;55835;52.096;21.060;2022-07-06T08:37:09;2.15;;;0.80;;
34671;SDS011;55835;52.096;21.060;2022-07-06T08:39:36;3.90;;;0.75;;
34671;SDS011;55835;52.096;21.060;2022-07-06T08:42:03;4.40;;;0.70;;
34671;SDS011;55835;52.096;21.060;2022-07-06T08:44:31;0.90;;;0.60;;
34671;SDS011;55835;52.096;21.060;2022-07-06T08:47:01;2.88;;;0.63;;
34671;SDS011;55835;52.096;21.060;2022-07-06T08:49:31;1.90;;;0.60;;
34671;SDS011;55835;52.096;21.060;2022-07-06T08:51:59;2.85;;;0.65;;
34671;SDS011;55835;52.096;21.060;2022-07-06T08:54:27;2.30;;;0.85;;
34671;SDS011;55835;52.096;21.060;2022-07-06T08:56:54;2.70;;;0.70;;
34671;SDS011;55835;52.096;21.060;2022-07-06T08:59:22;0.85;;;0.50;;
34671;SDS011;55835;52.096;21.060;2022-07-06T09:01:50;1.13;;;0.63;;
34671;SDS011;55835;52.096;21.060;2022-07-06T09:04:17;1.05;;;0.63;;
34671;SDS011;55835;52.096;21.060;2022-07-06T09:06:46;1.65;;;0.70;;
34671;SDS011;55835;52.096;21.060;2022-07-06T09:09:15;4.90;;;0.80;;
34671;SDS011;55835;52.096;21.060;2022-07-06T09:11:45;0.47;;;0.47;;
34671;SDS011;55835;52.096;21.060;2022-07-06T09:14:12;5.15;;;0.47;;
34671;SDS011;55835;52.096;21.060;2022-07-06T09:16:40;2.25;;;0.75;;
34671;SDS011;55835;52.096;21.060;2022-07-06T09:19:09;1.58;;;0.40;;
34671;SDS011;55835;52.096;21.060;2022-07-06T09:21:37;3.03;;;0.57;;
34671;SDS011;55835;52.096;21.060;2022-07-06T09:24:05;1.45;;;0.50;;
34671;SDS011;55835;52.096;21.060;2022-07-06T09:26:34;1.15;;;0.57;;
34671;SDS011;55835;52.096;21.060;2022-07-06T09:29:01;0.70;;;0.50;;
34671;SDS011;55835;52.096;21.060;2022-07-06T09:31:28;0.75;;;0.40;;
34671;SDS011;55835;52.096;21.060;2022-07-06T09:33:56;1.08;;;0.50;;
34671;SDS011;55835;52.096;21.060;2022-07-06T09:36:42;3.53;;;0.63;;
34671;SDS011;55835;52.096;21.060;2022-07-06T09:39:17;2.55;;;0.57;;
34671;SDS011;55835;52.096;21.060;2022-07-06T09:41:44;1.42;;;0.50;;
34671;SDS011;55835;52.096;21.060;2022-07-06T09:44:11;1.75;;;0.30;;
34671;SDS011;55835;52.096;21.060;2022-07-06T09:46:39;3.40;;;0.50;;
34671;SDS011;55835;52.096;21.060;2022-07-06T09:49:08;1.60;;;0.40;;
34671;SDS011;55835;52.096;21.060;2022-07-06T09:51:35;0.98;;;0.50;;
34671;SDS011;55835;52.096;21.060;2022-07-06T09:54:07;0.43;;;0.35;;
34671;SDS011;55835;52.096;21.060;2022-07-06T09:56:37;1.38;;;0.28;;
34671;SDS011;55835;52.096;21.060;2022-07-06T09:59:07;1.17;;;0.35;;
34671;SDS011;55835;52.096;21.060;2022-07-06T10:01:35;1.08;;;0.45;;
34671;SDS011;55835;52.096;21.060;2022-07-06T10:04:02;4.78;;;0.50;;
34671;SDS011;55835;52.096;21.060;2022-07-06T10:06:29;1.45;;;0.30;;
34671;SDS011;55835;52.096;21.060;2022-07-06T10:08:57;1.58;;;0.50;;
34671;SDS011;55835;52.096;21.060;2022-07-06T10:11:26;2.45;;;0.30;;
34671;SDS011;55835;52.096;21.060;2022-07-06T10:13:55;4.65;;;0.55;;
34671;SDS011;55835;52.096;21.060;2022-07-06T10:16:23;1.23;;;0.40;;
34671;SDS011;55835;52.096;21.060;2022-07-06T10:18:50;4.28;;;0.68;;
34671;SDS011;55835;52.096;21.060;2022-07-06T10:21:20;1.23;;;0.40;;
34671;SDS011;55835;52.096;21.060;2022-07-06T10:23:48;1.40;;;0.52;;
34671;SDS011;55835;52.096;21.060;2022-07-06T10:26:16;2.22;;;0.60;;
34671;SDS011;55835;52.096;21.060;2022-07-06T10:28:45;3.42;;;0.60;;
34671;SDS011;55835;52.096;21.060;2022-07-06T10:31:13;1.15;;;0.40;;
34671;SDS011;55835;52.096;21.060;2022-07-06T10:33:41;0.40;;;0.40;;
34671;SDS011;55835;52.096;21.060;2022-07-06T10:36:09;0.70;;;0.40;;
34671;SDS011;55835;52.096;21.060;2022-07-06T10:38:36;2.38;;;0.50;;
34671;SDS011;55835;52.096;21.060;2022-07-06T10:41:03;1.65;;;0.45;;
34671;SDS011;55835;52.096;21.060;2022-07-06T10:43:32;1.30;;;0.50;;
34671;SDS011;55835;52.096;21.060;2022-07-06T10:46:06;1.13;;;0.40;;
34671;SDS011;55835;52.096;21.060;2022-07-06T10:48:34;1.77;;;0.32;;
34671;SDS011;55835;52.096;21.060;2022-07-06T10:51:01;2.13;;;0.30;;
34671;SDS011;55835;52.096;21.060;2022-07-06T10:53:31;2.15;;;0.35;;
34671;SDS011;55835;52.096;21.060;2022-07-06T10:56:00;3.10;;;0.40;;
34671;SDS011;55835;52.096;21.060;2022-07-06T10:58:39;1.48;;;0.52;;
34671;SDS011;55835;52.096;21.060;2022-07-06T11:01:17;1.40;;;0.52;;
34671;SDS011;55835;52.096;21.060;2022-07-06T11:03:45;3.53;;;0.50;;
34671;SDS011;55835;52.096;21.060;2022-07-06T11:06:14;3.97;;;0.50;;
34671;SDS011;55835;52.096;21.060;2022-07-06T11:08:49;3.15;;;0.22;;
34671;SDS011;55835;52.096;21.060;2022-07-06T11:11:20;0.10;;;0.10;;
34671;SDS011;55835;52.096;21.060;2022-07-06T11:13:49;3.20;;;0.50;;
34671;SDS011;55835;52.096;21.060;2022-07-06T11:16:22;0.93;;;0.20;;
34671;SDS011;55835;52.096;21.060;2022-07-06T11:18:59;0.90;;;0.20;;
34671;SDS011;55835;52.096;21.060;2022-07-06T11:21:34;0.50;;;0.40;;
34671;SDS011;55835;52.096;21.060;2022-07-06T11:24:03;3.08;;;0.30;;
34671;SDS011;55835;52.096;21.060;2022-07-06T11:26:31;3.03;;;0.30;;
34671;SDS011;55835;52.096;21.060;2022-07-06T11:29:01;2.50;;;0.25;;
34671;SDS011;55835;52.096;21.060;2022-07-06T11:31:30;1.38;;;0.20;;
34671;SDS011;55835;52.096;21.060;2022-07-06T11:34:00;1.98;;;0.30;;
34671;SDS011;55835;52.096;21.060;2022-07-06T11:36:27;3.88;;;0.30;;
34671;SDS011;55835;52.096;21.060;2022-07-06T11:38:53;4.88;;;1.13;;
34671;SDS011;55835;52.096;21.060;2022-07-06T11:41:20;4.78;;;0.63;;
34671;SDS011;55835;52.096;21.060;2022-07-06T11:43:49;8.23;;;0.50;;
34671;SDS011;55835;52.096;21.060;2022-07-06T11:46:26;5.90;;;0.63;;
34671;SDS011;55835;52.096;21.060;2022-07-06T11:48:56;2.90;;;0.35;;
34671;SDS011;55835;52.096;21.060;2022-07-06T11:51:24;6.72;;;0.38;;
34671;SDS011;55835;52.096;21.060;2022-07-06T11:53:54;1.52;;;0.35;;
34671;SDS011;55835;52.096;21.060;2022-07-06T11:56:22;2.97;;;0.40;;
34671;SDS011;55835;52.096;21.060;2022-07-06T11:58:52;3.35;;;0.57;;
34671;SDS011;55835;52.096;21.060;2022-07-06T12:01:20;3.92;;;0.47;;
34671;SDS011;55835;52.096;21.060;2022-07-06T12:03:47;5.78;;;0.52;;
34671;SDS011;55835;52.096;21.060;2022-07-06T12:06:17;1.38;;;0.43;;
34671;SDS011;55835;52.096;21.060;2022-07-06T12:08:46;8.35;;;0.40;;
34671;SDS011;55835;52.096;21.060;2022-07-06T12:11:20;4.00;;;0.57;;
34671;SDS011;55835;52.096;21.060;2022-07-06T12:13:48;8.00;;;0.95;;
34671;SDS011;55835;52.096;21.060;2022-07-06T12:16:16;4.50;;;0.50;;
34671;SDS011;55835;52.096;21.060;2022-07-06T12:18:43;4.05;;;0.40;;
34671;SDS011;55835;52.096;21.060;2022-07-06T12:21:20;3.60;;;0.30;;
34671;SDS011;55835;52.096;21.060;2022-07-06T12:23:48;3.97;;;0.30;;
34671;SDS011;55835;52.096;21.060;2022-07-06T12:26:17;6.25;;;0.40;;
34671;SDS011;55835;52.096;21.060;2022-07-06T12:28:45;7.88;;;0.55;;
34671;SDS011;55835;52.096;21.060;2022-07-06T12:33:58;2.15;;;0.30;;
34671;SDS011;55835;52.096;21.060;2022-07-06T12:36:26;3.83;;;0.30;;
34671;SDS011;55835;52.096;21.060;2022-07-06T12:38:53;6.68;;;0.30;;
34671;SDS011;55835;52.096;21.060;2022-07-06T12:41:24;1.85;;;0.30;;
34671;SDS011;55835;52.096;21.060;2022-07-06T12:43:59;4.38;;;0.95;;
34671;SDS011;55835;52.096;21.060;2022-07-06T12:46:28;3.03;;;0.32;;
34671;SDS011;55835;52.096;21.060;2022-07-06T12:48:56;1.77;;;0.20;;
34671;SDS011;55835;52.096;21.060;2022-07-06T12:51:24;3.40;;;0.40;;
34671;SDS011;55835;52.096;21.060;2022-07-06T12:53:52;3.13;;;0.30;;
34671;SDS011;55835;52.096;21.060;2022-07-06T12:56:19;2.15;;;0.30;;
34671;SDS011;55835;52.096;21.060;2022-07-06T12:58:56;3.70;;;0.22;;
34671;SDS011;55835;52.096;21.060;2022-07-06T13:01:23;1.40;;;0.20;;
34671;SDS011;55835;52.096;21.060;2022-07-06T13:03:53;0.98;;;0.20;;
34671;SDS011;55835;52.096;21.060;2022-07-06T13:06:27;0.95;;;0.17;;
34671;SDS011;55835;52.096;21.060;2022-07-06T13:08:57;1.55;;;0.25;;
34671;SDS011;55835;52.096;21.060;2022-07-06T13:11:24;2.55;;;0.30;;
34671;SDS011;55835;52.096;21.060;2022-07-06T13:13:51;2.75;;;0.30;;
34671;SDS011;55835;52.096;21.060;2022-07-06T13:16:18;3.00;;;0.30;;
34671;SDS011;55835;52.096;21.060;2022-07-06T13:18:46;3.97;;;0.30;;
34671;SDS011;55835;52.096;21.060;2022-07-06T13:21:13;2.72;;;0.25;;
34671;SDS011;55835;52.096;21.060;2022-07-06T13:23:40;2.85;;;0.47;;
34671;SDS011;55835;52.096;21.060;2022-07-06T13:26:08;1.60;;;0.20;;
34671;SDS011;55835;52.096;21.060;2022-07-06T13:28:35;3.10;;;0.38;;
34671;SDS011;55835;52.096;21.060;2022-07-06T13:31:01;0.75;;;0.20;;
34671;SDS011;55835;52.096;21.060;2022-07-06T13:33:28;3.63;;;0.20;;
34671;SDS011;55835;52.096;21.060;2022-07-06T13:35:55;3.67;;;0.22;;
34671;SDS011;55835;52.096;21.060;2022-07-06T13:38:21;3.05;;;0.30;;
34671;SDS011;55835;52.096;21.060;2022-07-06T13:40:48;2.42;;;0.28;;
34671;SDS011;55835;52.096;21.060;2022-07-06T13:43:16;0.45;;;0.15;;
34671;SDS011;55835;52.096;21.060;2022-07-06T13:45:43;0.43;;;0.10;;
34671;SDS011;55835;52.096;21.060;2022-07-06T13:48:09;0.75;;;0.20;;
34671;SDS011;55835;52.096;21.060;2022-07-06T13:50:36;1.60;;;0.20;;
34671;SDS011;55835;52.096;21.060;2022-07-06T13:53:03;1.40;;;0.20;;
34671;SDS011;55835;52.096;21.060;2022-07-06T13:55:30;2.25;;;0.13;;
34671;SDS011;55835;52.096;21.060;2022-07-06T13:57:58;2.83;;;0.10;;
34671;SDS011;55835;52.096;21.060;2022-07-06T14:00:26;0.73;;;0.25;;
34671;SDS011;55835;52.096;21.060;2022-07-06T14:02:53;0.43;;;0.30;;
34671;SDS011;55835;52.096;21.060;2022-07-06T14:05:20;0.35;;;0.20;;
34671;SDS011;55835;52.096;21.060;2022-07-06T14:07:46;0.10;;;0.10;;
34671;SDS011;55835;52.096;21.060;2022-07-06T14:10:13;1.05;;;0.20;;
34671;SDS011;55835;52.096;21.060;2022-07-06T14:12:40;0.08;;;0.08;;
34671;SDS011;55835;52.096;21.060;2022-07-06T14:15:07;0.50;;;0.22;;
34671;SDS011;55835;52.096;21.060;2022-07-06T14:17:35;0.10;;;0.10;;
34671;SDS011;55835;52.096;21.060;2022-07-06T14:20:02;0.10;;;0.10;;
34671;SDS011;55835;52.096;21.060;2022-07-06T14:22:29;0.85;;;0.10;;
34671;SDS011;55835;52.096;21.060;2022-07-06T14:24:56;0.25;;;0.20;;
34671;SDS011;55835;52.096;21.060;2022-07-06T14:27:23;1.00;;;0.20;;
34671;SDS011;55835;52.096;21.060;2022-07-06T14:29:49;0.00;;;0.00;;
34671;SDS011;55835;52.096;21.060;2022-07-06T14:32:16;0.82;;;0.20;;
34671;SDS011;55835;52.096;21.060;2022-07-06T14:34:44;0.20;;;0.15;;
34671;SDS011;55835;52.096;21.060;2022-07-06T14:37:11;0.40;;;0.20;;
34671;SDS011;55835;52.096;21.060;2022-07-06T14:39:38;0.43;;;0.10;;
34671;SDS011;55835;52.096;21.060;2022-07-06T14:42:04;0.82;;;0.20;;